Terminal Aerodrome Forecast
Issued by NWS

Home | Current Version | Previous Version | Text Only | Print | Product List | Glossary On
Versions: 1 2 3 4 5 6 7 8 9
423
FTUS43 KTOP 232320
TAFMHK
TAF
KMHK 232320Z 2400/2424 17009KT P6SM SCT250
     FM240800 18008KT P6SM SKC WS020/18045KT
     FM241400 18017G28KT P6SM FEW250=

USA.gov is the U.S. government's official web portal to all federal, state and local government web resources and services.